Time;durP1;ratioP1;P1;durP2;ratioP2;P2;SDS_P1;SDS_P2;PMS_P1;PMS_P2;Temp;Humidity;BMP_temperature;BMP_pressure;BME280_temperature;BME280_humidity;BME280_pressure;Samples;Min_cycle;Max_cycle;Signal;HPM_P1;HPM_P2
2021/05/04 00:01:43;;;;;;;7.57;5.93;;;1.20;99.90;;;1.03;100.00;94937.00;2188369;58;26134;-58
2021/05/04 00:04:30;;;;;;;7.50;5.67;;;1.20;99.90;;;1.02;100.00;94938.00;2399592;57;26220;-58
2021/05/04 00:07:17;;;;;;;8.13;5.90;;;1.20;99.90;;;0.97;100.00;94935.00;2187028;58;26216;-57
2021/05/04 00:10:05;;;;;;;8.47;5.73;;;1.20;99.90;;;0.97;100.00;94930.00;2188547;58;25091;-58
2021/05/04 00:12:51;;;;;;;7.17;5.67;;;1.20;99.90;;;0.96;100.00;94916.00;2400611;57;26177;-57
2021/05/04 00:15:38;;;;;;;7.07;5.37;;;1.20;99.90;;;0.97;100.00;94922.00;2188151;58;26578;-57
2021/05/04 00:18:24;;;;;;;8.13;5.27;;;1.20;99.90;;;0.98;100.00;94921.00;2401545;57;26117;-58
2021/05/04 00:21:10;;;;;;;6.17;4.83;;;1.20;99.90;;;1.09;100.00;94906.00;2187574;58;25103;-58
2021/05/04 00:23:56;;;;;;;6.10;4.33;;;1.10;99.90;;;1.08;100.00;94912.00;2401255;57;25548;-58
2021/05/04 00:26:42;;;;;;;6.20;4.97;;;1.20;99.90;;;1.00;100.00;94902.00;2188162;58;26156;-59
2021/05/04 00:29:29;;;;;;;6.23;5.17;;;1.00;99.90;;;0.84;100.00;94900.00;2400811;57;26120;-57
2021/05/04 00:32:15;;;;;;;6.03;4.57;;;0.90;99.90;;;0.74;100.00;94903.00;2188375;58;26113;-57
2021/05/04 00:35:01;;;;;;;6.57;5.17;;;0.90;99.90;;;0.75;100.00;94901.00;2187979;58;26173;-58
2021/05/04 00:37:48;;;;;;;6.43;5.13;;;0.90;99.90;;;0.80;100.00;94902.00;2400873;57;26180;-58
2021/05/04 00:40:34;;;;;;;7.57;5.10;;;0.80;99.90;;;0.56;100.00;94902.00;2188226;58;26160;-59
2021/05/04 00:43:27;;;;;;;6.33;5.10;;;0.80;99.90;;;0.65;100.00;94897.00;2401410;57;26134;-57
2021/05/04 00:46:13;;;;;;;6.40;4.53;;;0.80;99.90;;;0.63;100.00;94898.00;2188075;58;26154;-57
2021/05/04 00:48:59;;;;;;;6.03;5.10;;;0.80;99.90;;;0.64;100.00;94896.00;2401340;57;26140;-58
2021/05/04 00:51:46;;;;;;;6.20;5.10;;;0.70;99.90;;;0.54;100.00;94886.00;2188015;58;26141;-58
2021/05/04 00:54:32;;;;;;;6.67;4.77;;;0.70;99.90;;;0.51;100.00;94902.00;2400870;58;26677;-58
2021/05/04 00:57:19;;;;;;;6.17;5.03;;;0.60;99.90;;;0.48;100.00;94886.00;2188329;58;26310;-57
2021/05/04 01:00:11;;;;;;;5.93;4.93;;;0.60;99.90;;;0.41;100.00;94893.00;2401256;58;26626;-58
2021/05/04 01:02:58;;;;;;;6.03;5.00;;;0.80;99.90;;;0.77;100.00;94874.00;2188221;58;26598;-58
2021/05/04 01:05:45;;;;;;;6.60;5.10;;;0.60;99.90;;;0.51;100.00;94876.00;2400759;58;26132;-58
2021/05/04 01:08:31;;;;;;;6.60;4.43;;;0.60;99.90;;;0.47;100.00;94877.00;2188352;58;26152;-58
2021/05/04 01:11:18;;;;;;;5.83;5.23;;;0.70;99.90;;;0.69;100.00;94863.00;2187712;58;25155;-58
2021/05/04 01:14:04;;;;;;;6.00;5.03;;;0.80;99.90;;;0.72;100.00;94862.00;2401409;58;26546;-57
2021/05/04 01:16:54;;;;;;;9.03;5.87;;;0.50;99.90;;;0.44;100.00;94857.00;2188338;58;26542;-58
2021/05/04 01:19:40;;;;;;;6.17;4.70;;;0.60;99.90;;;0.68;100.00;94848.00;2400573;57;26721;-58
2021/05/04 01:22:26;;;;;;;9.57;5.70;;;0.50;99.90;;;0.45;100.00;94851.00;2188120;58;26134;-57
2021/05/04 01:25:15;;;;;;;7.83;5.40;;;0.50;99.90;;;0.35;100.00;94855.00;2401349;58;26172;-58
2021/05/04 01:28:03;;;;;;;6.43;5.00;;;0.60;99.90;;;0.67;100.00;94839.00;2187747;58;26151;-57
2021/05/04 01:30:49;;;;;;;9.77;5.80;;;0.50;99.90;;;0.43;100.00;94849.00;2400889;58;26200;-58
2021/05/04 01:33:35;;;;;;;7.60;5.67;;;0.50;99.90;;;0.32;100.00;94860.00;2188262;58;25543;-58
2021/05/04 01:36:22;;;;;;;6.10;5.20;;;0.60;99.90;;;0.47;100.00;94846.00;2400472;58;26556;-57
2021/05/04 01:39:10;;;;;;;5.90;5.17;;;0.50;99.90;;;0.31;100.00;94840.00;2188575;58;26148;-58
2021/05/04 01:41:56;;;;;;;7.97;5.00;;;0.50;99.90;;;0.26;100.00;94847.00;2400854;58;26190;-58
2021/05/04 01:44:43;;;;;;;6.10;4.93;;;0.40;99.90;;;0.22;100.00;94841.00;2188001;58;26169;-57
2021/05/04 01:47:29;;;;;;;5.67;4.60;;;0.40;99.90;;;0.26;100.00;94838.00;2188334;58;26197;-59
2021/05/04 01:50:16;;;;;;;6.37;5.07;;;0.20;99.90;;;0.12;100.00;94845.00;2401020;57;25224;-58
2021/05/04 01:53:03;;;;;;;5.93;4.97;;;0.30;99.90;;;0.20;100.00;94846.00;2188082;58;26225;-58
2021/05/04 01:55:49;;;;;;;7.30;5.10;;;0.30;99.90;;;0.16;100.00;94842.00;2400906;57;25258;-57
2021/05/04 01:58:36;;;;;;;6.00;4.90;;;0.30;99.90;;;0.22;100.00;94840.00;2188156;58;26235;-59
2021/05/04 02:01:22;;;;;;;5.70;4.70;;;0.20;99.90;;;-0.12;100.00;94816.00;2401122;57;26208;-57
2021/05/04 02:04:08;;;;;;;6.03;5.00;;;0.30;99.90;;;0.37;100.00;94827.00;2188321;58;26125;-58
2021/05/04 02:06:54;;;;;;;7.70;4.73;;;0.20;99.90;;;0.04;100.00;94839.00;2401395;57;26246;-58
2021/05/04 02:09:41;;;;;;;6.27;4.77;;;0.20;99.90;;;0.20;100.00;94824.00;2188229;58;26113;-58
2021/05/04 02:12:27;;;;;;;6.20;5.33;;;0.30;99.90;;;0.33;100.00;94834.00;2188160;58;25127;-58
2021/05/04 02:15:16;;;;;;;6.97;4.60;;;0.30;99.90;;;0.12;100.00;94833.00;2401535;58;26607;-57
2021/05/04 02:18:03;;;;;;;8.23;4.63;;;0.20;99.90;;;0.11;100.00;94823.00;2188227;58;26760;-58
2021/05/04 02:20:49;;;;;;;5.27;4.47;;;0.20;99.90;;;0.10;100.00;94819.00;2400703;57;26569;-57
2021/05/04 02:23:36;;;;;;;5.87;4.80;;;0.10;99.90;;;-0.07;100.00;94819.00;2188250;58;26104;-58
2021/05/04 02:26:23;;;;;;;5.13;4.53;;;-0.10;99.90;;;-0.17;100.00;94813.00;2401062;57;26172;-60
2021/05/04 02:29:09;;;;;;;6.30;4.90;;;-0.10;99.90;;;-0.16;100.00;94812.00;2188241;58;26195;-57
2021/05/04 02:31:56;;;;;;;5.20;4.30;;;-0.20;99.90;;;-0.26;100.00;94817.00;2401337;57;26136;-58
2021/05/04 02:34:42;;;;;;;5.23;4.63;;;-0.10;99.90;;;-0.21;100.00;94809.00;2187931;58;26133;-58
2021/05/04 02:37:28;;;;;;;8.57;5.20;;;-0.20;99.90;;;-0.36;100.00;94819.00;2401034;57;26526;-58
2021/05/04 02:40:15;;;;;;;5.10;4.50;;;-0.20;99.90;;;-0.35;100.00;94813.00;2188389;58;26216;-57
2021/05/04 02:43:02;;;;;;;5.67;4.70;;;-0.20;99.90;;;-0.38;100.00;94807.00;2186867;58;26208;-57
2021/05/04 02:45:48;;;;;;;7.23;4.47;;;-0.20;99.90;;;-0.19;100.00;94802.00;2187108;58;26573;-58
2021/05/04 02:48:38;;;;;;;6.43;5.17;;;-0.20;99.90;;;-0.37;100.00;94809.00;2186936;58;26215;-57
2021/05/04 02:51:25;;;;;;;6.70;4.47;;;-0.20;99.90;;;-0.36;100.00;94801.00;2400145;57;25667;-59
2021/05/04 02:54:12;;;;;;;5.90;4.70;;;-0.30;99.90;;;-0.42;100.00;94794.00;2401359;58;26193;-58
2021/05/04 02:56:58;;;;;;;6.77;5.00;;;-0.30;99.90;;;-0.47;100.00;94796.00;2401079;57;26609;-59
2021/05/04 02:59:44;;;;;;;6.67;4.53;;;-0.30;99.90;;;-0.43;100.00;94802.00;2188102;58;26135;-59
2021/05/04 03:02:31;;;;;;;5.70;4.77;;;-0.40;99.90;;;-0.53;100.00;94799.00;2401350;57;26180;-58
2021/05/04 03:05:17;;;;;;;5.90;4.63;;;-0.30;99.90;;;-0.44;100.00;94798.00;2188092;58;26252;-59
2021/05/04 03:08:05;;;;;;;6.03;4.87;;;-0.30;99.90;;;-0.49;100.00;94784.00;2401308;57;26235;-58
2021/05/04 03:10:51;;;;;;;9.83;4.50;;;-0.30;99.90;;;-0.52;100.00;94793.00;2188075;58;26199;-58
2021/05/04 03:13:37;;;;;;;5.00;4.50;;;-0.20;99.90;;;-0.22;100.00;94783.00;2187988;58;26165;-58
2021/05/04 03:16:24;;;;;;;5.70;4.47;;;-0.30;99.90;;;-0.40;100.00;94778.00;2401249;57;26216;-58
2021/05/04 03:19:10;;;;;;;6.50;4.77;;;-0.40;99.90;;;-0.54;100.00;94777.00;2188337;58;26217;-59
2021/05/04 03:21:56;;;;;;;5.50;4.60;;;-0.50;99.90;;;-0.64;100.00;94768.00;2401039;57;26128;-58
2021/05/04 03:24:43;;;;;;;7.63;4.90;;;-0.50;99.90;;;-0.51;100.00;94774.00;2188186;58;26108;-58
2021/05/04 03:27:29;;;;;;;5.27;4.57;;;-0.40;99.90;;;-0.54;100.00;94777.00;2401046;58;26240;-58
2021/05/04 03:30:18;;;;;;;5.80;4.47;;;-0.50;99.90;;;-0.61;100.00;94771.00;2188183;58;26132;-59
2021/05/04 03:33:05;;;;;;;5.67;4.77;;;-0.40;99.90;;;-0.45;100.00;94768.00;2188327;58;26177;-58
2021/05/04 03:35:51;;;;;;;4.40;3.97;;;-0.50;99.90;;;-0.62;100.00;94769.00;2400789;57;26177;-58
2021/05/04 03:38:38;;;;;;;7.00;4.47;;;-0.50;99.90;;;-0.61;100.00;94763.00;2188139;58;26212;-58
2021/05/04 03:41:24;;;;;;;5.67;4.70;;;-0.50;99.90;;;-0.67;100.00;94760.00;2399832;57;26227;-58
2021/05/04 03:44:11;;;;;;;5.70;4.60;;;-0.60;99.90;;;-0.69;100.00;94760.00;2187251;58;26608;-58
2021/05/04 03:46:58;;;;;;;5.07;4.53;;;-0.50;99.90;;;-0.72;100.00;94758.00;2186906;58;26176;-59
2021/05/04 03:49:44;;;;;;;8.60;4.67;;;-0.50;99.90;;;-0.53;100.00;94758.00;2400796;57;26136;-58
2021/05/04 03:52:31;;;;;;;6.93;5.27;;;-0.60;99.90;;;-0.71;100.00;94764.00;2401326;57;26220;-59
2021/05/04 03:55:17;;;;;;;7.50;4.40;;;-0.60;99.90;;;-0.71;100.00;94754.00;2188283;58;26172;-58
2021/05/04 03:58:04;;;;;;;5.23;4.20;;;-0.60;99.90;;;-0.72;100.00;94755.00;2401105;57;26120;-58
2021/05/04 04:00:50;;;;;;;6.03;4.53;;;-0.60;99.90;;;-0.71;100.00;94761.00;2188274;58;26215;-58
2021/05/04 04:03:37;;;;;;;5.57;4.30;;;-0.60;99.90;;;-0.68;100.00;94751.00;2187987;58;26173;-58
2021/05/04 04:06:23;;;;;;;4.53;4.03;;;-0.60;99.90;;;-0.68;100.00;94759.00;2400876;57;26261;-59
2021/05/04 04:09:09;;;;;;;5.40;4.80;;;-0.50;99.90;;;-0.53;100.00;94758.00;2188467;58;25574;-58
2021/05/04 04:11:56;;;;;;;6.60;4.53;;;-0.50;99.90;;;-0.61;100.00;94758.00;2399572;57;26228;-58
2021/05/04 04:14:42;;;;;;;6.63;4.90;;;-0.60;99.90;;;-0.67;100.00;94756.00;2187178;58;26179;-58
2021/05/04 04:17:28;;;;;;;5.20;4.60;;;-0.50;99.90;;;-0.55;100.00;94744.00;2187454;58;26233;-58
2021/05/04 04:20:16;;;;;;;5.53;4.93;;;-0.50;99.90;;;-0.50;100.00;94739.00;2186392;58;26129;-60
2021/05/04 04:23:02;;;;;;;6.83;5.27;;;-0.40;99.90;;;-0.46;100.00;94738.00;2401286;57;26228;-58
2021/05/04 04:25:48;;;;;;;8.63;5.20;;;-0.40;99.90;;;-0.45;100.00;94742.00;2401243;57;26951;-58
2021/05/04 04:28:34;;;;;;;5.80;4.93;;;-0.30;99.90;;;-0.26;100.00;94734.00;2187946;58;26287;-58
2021/05/04 04:31:21;;;;;;;6.20;4.97;;;-0.30;99.90;;;-0.25;100.00;94734.00;2401277;58;26139;-58
2021/05/04 04:34:07;;;;;;;6.53;4.93;;;-0.20;99.90;;;-0.16;100.00;94738.00;2188092;58;26180;-58
2021/05/04 04:36:54;;;;;;;6.03;4.90;;;-0.20;99.90;;;-0.13;100.00;94730.00;2401012;58;26606;-58
2021/05/04 04:39:41;;;;;;;6.63;4.97;;;-0.10;99.90;;;0.00;100.00;94733.00;2188524;58;26176;-58
2021/05/04 04:42:27;;;;;;;5.80;4.73;;;0.00;99.90;;;0.03;100.00;94724.00;2401146;57;26602;-58
2021/05/04 04:45:15;;;;;;;5.30;4.07;;;0.00;99.90;;;0.26;100.00;94726.00;2188173;58;26582;-58
2021/05/04 04:48:01;;;;;;;5.73;4.73;;;0.20;99.90;;;0.33;100.00;94724.00;2188512;58;26172;-60
2021/05/04 04:50:47;;;;;;;7.97;4.63;;;0.10;99.90;;;0.16;100.00;94715.00;2400764;57;26128;-59
2021/05/04 04:53:33;;;;;;;4.93;3.93;;;0.20;99.90;;;0.36;100.00;94725.00;2188200;58;26148;-61
2021/05/04 04:56:20;;;;;;;6.17;4.20;;;0.30;99.90;;;0.44;100.00;94717.00;2401032;57;26293;-59
2021/05/04 04:59:07;;;;;;;5.70;3.93;;;0.30;99.90;;;0.50;100.00;94714.00;2188531;58;25079;-58
2021/05/04 05:01:53;;;;;;;6.97;4.30;;;0.40;99.90;;;0.62;100.00;94712.00;2401184;58;26629;-58
2021/05/04 05:04:39;;;;;;;5.77;4.33;;;0.60;99.90;;;0.99;100.00;94708.00;2187900;58;26200;-58
2021/05/04 05:07:25;;;;;;;4.70;3.73;;;0.90;99.90;;;1.15;100.00;94708.00;2401071;57;26180;-58
2021/05/04 05:10:13;;;;;;;4.80;3.97;;;1.00;99.90;;;1.33;100.00;94708.00;2188144;58;26113;-58
2021/05/04 05:12:59;;;;;;;9.37;4.73;;;1.40;99.90;;;2.91;100.00;94706.00;2188125;58;26132;-59
2021/05/04 05:15:45;;;;;;;8.03;4.17;;;3.10;99.90;;;7.51;100.00;94664.00;2400978;58;26200;-59
2021/05/04 05:18:33;;;;;;;7.17;3.27;;;4.40;99.90;;;10.04;100.00;94654.00;2188082;58;26223;-59
2021/05/04 05:21:20;;;;;;;4.73;3.07;;;6.00;99.90;;;12.12;100.00;94646.00;2400827;58;26180;-60
2021/05/04 05:24:09;;;;;;;3.10;2.30;;;7.20;99.90;;;12.98;98.69;94637.00;2188071;58;26212;-58
2021/05/04 05:26:55;;;;;;;3.40;2.30;;;7.00;99.90;;;12.94;92.95;94647.00;2400743;57;26598;-58
2021/05/04 05:29:42;;;;;;;2.53;2.20;;;7.80;99.90;;;15.27;79.64;94635.00;2187996;58;26144;-59
2021/05/04 05:32:28;;;;;;;2.63;2.37;;;8.80;99.90;;;16.51;68.22;94642.00;2400985;57;26132;-59
2021/05/04 05:35:15;;;;;;;4.63;2.53;;;9.20;99.90;;;15.20;72.13;94640.00;2188149;58;26610;-58
2021/05/04 05:38:01;;;;;;;3.63;2.17;;;9.20;99.90;;;14.91;72.39;94633.00;2401197;57;26192;-59
2021/05/04 05:40:48;;;;;;;5.00;2.50;;;9.00;99.90;;;14.80;73.49;94634.00;2187999;58;26120;-59
2021/05/04 05:43:34;;;;;;;4.53;2.30;;;8.60;99.90;;;14.30;77.95;94630.00;2187856;58;26156;-58
2021/05/04 05:46:22;;;;;;;5.73;2.30;;;8.40;99.90;;;14.24;82.69;94634.00;2401424;57;26140;-58
2021/05/04 05:49:09;;;;;;;3.67;2.40;;;9.30;99.90;;;15.72;73.73;94620.00;2187931;58;26583;-59
2021/05/04 05:51:56;;;;;;;4.13;2.30;;;10.50;99.90;;;16.14;74.91;94614.00;2401043;57;26128;-59
2021/05/04 05:54:42;;;;;;;8.77;2.47;;;10.50;99.90;;;15.92;72.31;94611.00;2187152;58;26693;-59
2021/05/04 05:57:29;;;;;;;3.83;2.63;;;9.80;99.90;;;15.25;81.33;94608.00;2400176;58;26601;-59
2021/05/04 06:00:18;;;;;;;2.90;2.30;;;10.60;99.90;;;15.69;76.78;94596.00;2187894;58;26180;-59
2021/05/04 06:03:05;;;;;;;4.83;2.90;;;10.80;99.90;;;14.66;84.52;94601.00;2401002;57;26149;-59
2021/05/04 06:05:52;;;;;;;5.43;2.70;;;12.30;99.90;;;16.35;75.60;94581.00;2186882;58;26284;-58
2021/05/04 06:08:38;;;;;;;4.07;2.60;;;12.80;99.90;;;17.75;67.71;94581.00;2187587;58;26150;-59
2021/05/04 06:11:25;;;;;;;3.33;2.27;;;13.50;99.90;;;17.90;65.03;94579.00;2401022;57;26125;-59
2021/05/04 06:14:11;;;;;;;6.30;1.50;;;14.40;99.90;;;17.13;61.49;94578.00;2188012;58;26137;-59
2021/05/04 06:16:58;;;;;;;2.40;1.80;;;14.60;99.90;;;17.08;60.23;94570.00;2401008;58;26171;-59
2021/05/04 06:19:44;;;;;;;2.20;1.90;;;14.60;99.90;;;17.08;65.16;94571.00;2187850;58;26233;-58
2021/05/04 06:22:30;;;;;;;2.97;1.50;;;14.10;99.90;;;16.75;61.65;94573.00;2400427;58;26169;-58
2021/05/04 06:25:17;;;;;;;2.10;1.60;;;13.90;99.90;;;16.44;57.26;94575.00;2188103;58;26168;-59
2021/05/04 06:28:06;;;;;;;3.10;1.53;;;14.10;99.90;;;16.02;57.59;94582.00;2399856;58;26268;-59
2021/05/04 06:30:53;;;;;;;1.87;1.60;;;14.20;99.90;;;16.34;54.17;94575.00;2187445;58;26182;-60
2021/05/04 06:33:39;;;;;;;1.73;1.40;;;14.50;99.90;;;16.42;53.69;94577.00;2187761;58;26194;-60
2021/05/04 06:36:27;;;;;;;1.73;1.50;;;13.60;99.90;;;16.05;55.61;94577.00;2400851;57;26176;-59
2021/05/04 06:39:13;;;;;;;3.40;1.50;;;14.30;99.90;;;16.72;57.21;94580.00;2187924;58;26239;-58
2021/05/04 06:42:00;;;;;;;1.93;1.60;;;13.90;99.90;;;14.81;59.63;94583.00;2400688;57;26183;-59
2021/05/04 06:44:46;;;;;;;2.20;1.80;;;13.30;99.90;;;14.63;59.72;94578.00;2187636;58;26163;-58
2021/05/04 06:47:33;;;;;;;1.60;1.37;;;14.10;99.90;;;16.25;56.62;94571.00;2400774;57;26680;-60
2021/05/04 06:50:19;;;;;;;1.90;1.50;;;13.90;99.90;;;15.93;52.96;94568.00;2187691;58;26124;-60
2021/05/04 06:53:06;;;;;;;2.17;1.70;;;13.40;99.90;;;14.91;58.86;94578.00;2401018;57;26148;-58
2021/05/04 06:55:53;;;;;;;2.10;1.50;;;13.50;99.90;;;15.33;57.67;94568.00;2184386;58;26609;-59
2021/05/04 06:58:39;;;;;;;3.07;1.70;;;14.90;99.90;;;17.31;52.57;94558.00;2187478;58;26274;-58
2021/05/04 07:01:26;;;;;;;1.70;1.43;;;14.80;99.90;;;16.46;52.26;94565.00;2399559;57;26235;-58
2021/05/04 07:04:14;;;;;;;1.90;1.50;;;15.00;99.90;;;16.28;52.89;94559.00;2186424;58;26774;-58
2021/05/04 07:07:01;;;;;;;2.22;1.60;;;14.70;99.90;;;16.12;52.91;94550.00;2400997;57;26261;-58
2021/05/04 07:09:47;;;;;;;3.40;1.67;;;15.00;99.90;;;16.46;50.47;94538.00;2187938;58;26150;-58
2021/05/04 07:12:34;;;;;;;2.05;1.40;;;14.20;99.90;;;16.16;53.13;94547.00;2400660;57;26227;-59
2021/05/04 07:15:20;;;;;;;2.22;1.30;;;14.90;99.90;;;16.31;51.44;94543.00;2188488;58;26131;-58
2021/05/04 07:18:10;;;;;;;1.83;1.30;;;15.00;99.90;;;15.78;51.70;94543.00;2401350;57;26127;-58
2021/05/04 07:20:56;;;;;;;2.20;1.23;;;15.10;99.90;;;16.13;50.57;94537.00;2187523;58;26870;-59
2021/05/04 07:23:42;;;;;;;2.53;1.40;;;15.00;99.90;;;16.44;50.47;94535.00;2187814;58;26647;-59
2021/05/04 07:26:29;;;;;;;1.95;1.35;;;15.50;99.90;;;16.96;48.77;94532.00;2400766;57;26177;-58
2021/05/04 07:29:15;;;;;;;1.73;1.50;;;16.10;99.90;;;17.65;48.55;94531.00;2188016;58;26120;-60
2021/05/04 07:32:02;;;;;;;2.47;1.40;;;16.10;99.90;;;17.58;47.06;94535.00;2186348;58;26346;-58
2021/05/04 07:34:49;;;;;;;1.35;1.25;;;16.00;99.90;;;17.69;45.74;94522.00;2187667;58;26187;-58
2021/05/04 07:37:38;;;;;;;2.35;1.30;;;14.30;99.90;;;16.20;50.00;94527.00;2400579;57;26277;-59
2021/05/04 07:40:25;;;;;;;1.55;1.40;;;15.50;99.90;;;17.04;50.40;94521.00;2187637;58;26132;-58
2021/05/04 07:43:11;;;;;;;1.73;1.35;;;15.50;99.90;;;16.32;48.58;94513.00;2400835;57;26216;-59
2021/05/04 07:45:58;;;;;;;3.03;1.40;;;15.90;99.90;;;17.39;49.76;94510.00;2187926;58;26684;-61
2021/05/04 07:48:44;;;;;;;1.85;1.50;;;16.10;99.90;;;18.01;47.59;94506.00;2400969;57;26291;-59
2021/05/04 07:51:30;;;;;;;1.45;1.35;;;16.00;99.70;;;17.95;43.84;94510.00;2187727;58;26241;-58
2021/05/04 07:54:18;;;;;;;3.03;1.50;;;16.40;99.80;;;19.09;41.99;94508.00;2187456;58;26136;-58
2021/05/04 07:57:05;;;;;;;1.48;1.17;;;18.00;98.50;;;20.17;39.84;94501.00;2400718;57;26240;-59
2021/05/04 07:59:52;;;;;;;2.00;1.37;;;18.40;97.80;;;20.95;38.66;94503.00;2187629;58;26188;-59
2021/05/04 08:02:39;;;;;;;1.70;1.42;;;17.20;97.20;;;19.99;38.04;94507.00;2400659;57;26120;-59
2021/05/04 08:05:26;;;;;;;1.60;1.40;;;17.00;97.20;;;18.90;39.63;94503.00;2187906;58;26196;-59
2021/05/04 08:08:13;;;;;;;1.90;1.67;;;16.90;97.00;;;19.01;38.97;94507.00;2401109;57;26169;-58
2021/05/04 08:11:00;;;;;;;2.20;1.73;;;15.50;97.10;;;16.76;42.01;94500.00;2187841;58;26270;-58
2021/05/04 08:13:47;;;;;;;2.35;1.50;;;14.70;98.10;;;15.68;45.38;94509.00;2401139;57;26535;-59
2021/05/04 08:16:33;;;;;;;2.42;1.60;;;15.20;99.90;;;17.29;46.99;94494.00;2188080;58;26292;-59
2021/05/04 08:19:19;;;;;;;1.90;1.70;;;15.80;98.30;;;18.21;42.12;94495.00;2400802;57;26196;-60
2021/05/04 08:22:06;;;;;;;2.45;1.33;;;16.30;97.40;;;18.71;40.83;94499.00;2188173;58;26578;-59
2021/05/04 08:24:52;;;;;;;3.22;1.50;;;16.30;96.00;;;17.85;39.84;94500.00;2188046;58;26178;-59
2021/05/04 08:27:39;;;;;;;1.58;1.45;;;16.50;96.60;;;18.44;40.49;94498.00;2400667;57;26201;-59
2021/05/04 08:30:25;;;;;;;3.17;1.65;;;16.70;96.60;;;18.89;39.73;94490.00;2187814;58;26140;-59
2021/05/04 08:33:12;;;;;;;2.87;1.40;;;16.90;97.20;;;18.93;40.58;94491.00;2401289;57;26605;-58
2021/05/04 08:35:59;;;;;;;2.45;1.50;;;16.30;98.30;;;18.25;43.29;94478.00;2187480;58;26712;-58
2021/05/04 08:38:46;;;;;;;2.30;1.70;;;16.70;97.80;;;18.64;42.36;94484.00;2401322;57;26203;-59
2021/05/04 08:41:35;;;;;;;2.55;1.33;;;17.50;96.50;;;20.19;38.61;94477.00;2187810;58;26192;-59
2021/05/04 08:44:23;;;;;;;1.70;1.45;;;17.30;95.80;;;19.53;38.22;94478.00;2400838;57;26188;-58
2021/05/04 08:47:09;;;;;;;2.47;1.52;;;17.50;97.50;;;20.62;39.33;94480.00;2188657;58;26185;-58
2021/05/04 08:49:56;;;;;;;3.10;1.50;;;17.80;95.50;;;19.75;38.17;94474.00;2187343;58;26275;-59
2021/05/04 08:52:43;;;;;;;3.12;1.95;;;19.00;95.90;;;21.73;37.31;94475.00;2400552;58;26125;-58
2021/05/04 08:55:29;;;;;;;2.08;1.67;;;18.20;96.10;;;20.23;38.85;94473.00;2188215;58;26566;-58
2021/05/04 08:58:15;;;;;;;5.03;1.70;;;17.30;98.00;;;19.11;43.21;94477.00;2400985;57;26150;-59
2021/05/04 09:01:02;;;;;;;2.10;1.60;;;17.50;97.90;;;19.72;42.33;94481.00;2187961;58;26173;-59
2021/05/04 09:03:50;;;;;;;2.20;1.70;;;17.60;96.90;;;19.96;40.74;94470.00;2401275;57;26212;-58
2021/05/04 09:06:42;;;;;;;2.42;1.42;;;17.90;99.10;;;20.65;42.97;94468.00;2187984;58;26139;-58
2021/05/04 09:09:32;;;;;;;2.10;1.70;;;20.40;94.30;;;23.60;33.92;94471.00;2400828;58;26172;-59
2021/05/04 09:12:33;;;;;;;2.10;1.48;;;19.50;95.70;;;21.98;37.95;94472.00;2187920;58;26240;-59
2021/05/04 09:16:02;;;;;;;2.60;1.73;;;18.50;97.90;;;21.07;41.72;94469.00;2188442;58;26164;-60
2021/05/04 09:21:55;;;;;;;2.53;1.70;;;18.50;96.70;;;21.39;39.40;94465.00;2400990;57;26117;-59
2021/05/04 09:24:43;;;;;;;2.60;1.65;;;18.60;96.50;;;21.20;39.16;94460.00;2187730;58;26215;-59
2021/05/04 09:27:29;;;;;;;2.92;1.65;;;18.00;96.00;;;20.48;39.51;94456.00;2400793;57;26189;-59
2021/05/04 09:30:17;;;;;;;3.45;1.50;;;19.10;94.30;;;22.31;35.55;94447.00;2187999;58;26266;-59
2021/05/04 09:33:09;;;;;;;2.08;1.50;;;18.90;96.30;;;21.97;38.30;94444.00;2187482;58;26200;-59
2021/05/04 09:35:55;;;;;;;2.05;1.58;;;19.60;94.10;;;22.77;34.48;94440.00;2187310;58;26169;-58
2021/05/04 09:38:45;;;;;;;3.25;1.70;;;20.80;91.00;;;23.19;31.52;94435.00;2187761;58;26116;-59
2021/05/04 09:41:32;;;;;;;2.53;1.65;;;21.50;96.50;;;24.28;38.26;94426.00;2187536;58;26117;-60
2021/05/04 09:44:38;;;;;;;4.12;1.77;;;20.50;94.40;;;23.62;35.57;94413.00;2187938;58;26673;-60
2021/05/04 09:47:26;;;;;;;1.80;1.60;;;20.40;93.10;;;23.68;33.50;94412.00;2187254;58;26128;-59
2021/05/04 09:50:12;;;;;;;2.75;1.70;;;21.30;91.40;;;24.60;31.18;94418.00;2400538;57;26184;-60
2021/05/04 09:53:07;;;;;;;2.40;1.77;;;20.20;92.10;;;22.42;33.97;94417.00;2187596;58;26116;-60
2021/05/04 09:56:00;;;;;;;2.80;1.60;;;20.90;92.20;;;24.35;32.45;94414.00;2187841;58;26221;-59
2021/05/04 09:58:49;;;;;;;2.65;1.50;;;20.30;95.80;;;22.65;38.74;94416.00;2400920;57;26148;-59
2021/05/04 10:01:35;;;;;;;2.22;1.65;;;20.00;95.60;;;22.96;38.81;94403.00;2188013;58;26188;-59
2021/05/04 10:04:22;;;;;;;2.12;1.45;;;20.60;89.90;;;22.85;31.16;94408.00;2187636;58;27236;-59
2021/05/04 10:07:09;;;;;;;2.80;1.48;;;21.00;90.10;;;23.52;31.37;94397.00;2400881;57;26515;-59
2021/05/04 10:09:57;;;;;;;3.25;1.73;;;20.80;93.20;;;23.32;35.60;94395.00;2188060;58;26208;-60
2021/05/04 10:12:46;;;;;;;2.67;1.55;;;20.20;90.20;;;22.15;32.56;94398.00;2400668;58;26169;-60
2021/05/04 10:15:33;;;;;;;1.65;1.35;;;22.80;90.60;;;25.65;30.71;94399.00;2188074;58;26609;-59
2021/05/04 10:18:21;;;;;;;2.30;1.73;;;21.30;92.10;;;23.83;34.09;94382.00;2401173;57;26116;-59
2021/05/04 10:21:09;;;;;;;2.42;1.50;;;20.20;90.70;;;22.25;33.71;94387.00;2187355;58;26139;-59
2021/05/04 10:23:56;;;;;;;2.47;1.58;;;20.50;91.00;;;22.54;33.68;94388.00;2401279;57;26266;-59
2021/05/04 10:26:42;;;;;;;2.15;1.50;;;20.60;87.70;;;23.37;30.42;94379.00;2187593;58;26586;-60
2021/05/04 10:29:31;;;;;;;2.08;1.60;;;20.80;92.70;;;23.13;36.06;94371.00;2400988;57;26196;-59
2021/05/04 10:32:46;;;;;;;1.75;1.62;;;20.60;87.00;;;22.64;31.37;94364.00;2188277;58;26585;-59
2021/05/04 10:35:42;;;;;;;2.65;1.70;;;21.50;85.10;;;23.34;30.23;94365.00;2401131;57;26196;-60
2021/05/04 10:38:50;;;;;;;2.75;1.70;;;21.30;90.60;;;23.07;33.44;94368.00;2188301;58;26180;-59
2021/05/04 10:41:58;;;;;;;2.37;1.70;;;20.30;91.50;;;22.19;33.92;94358.00;2187538;58;26204;-59
2021/05/04 10:45:11;;;;;;;2.75;1.50;;;20.30;91.30;;;22.09;35.86;94364.00;2400862;57;26622;-59
2021/05/04 10:48:03;;;;;;;5.00;1.62;;;20.50;83.30;;;22.60;29.86;94354.00;2401077;57;26132;-59
2021/05/04 10:50:51;;;;;;;2.33;1.75;;;20.40;84.70;;;22.30;30.99;94341.00;2187396;58;26261;-59
2021/05/04 10:54:03;;;;;;;3.83;1.52;;;20.10;88.40;;;22.13;32.78;94343.00;2401071;57;26129;-60
2021/05/04 10:56:59;;;;;;;2.12;1.50;;;20.20;85.00;;;21.95;31.63;94336.00;2187527;58;26338;-59
2021/05/04 10:59:46;;;;;;;1.80;1.60;;;20.20;86.70;;;21.77;32.61;94334.00;2400391;58;26120;-60
2021/05/04 11:02:33;;;;;;;1.98;1.70;;;20.10;89.60;;;21.66;34.94;94327.00;2187879;58;26709;-60
2021/05/04 11:05:47;;;;;;;3.08;1.60;;;20.40;87.40;;;22.56;32.31;94327.00;2401200;57;26569;-59
2021/05/04 11:09:10;;;;;;;1.60;1.45;;;20.50;87.50;;;22.81;32.63;94322.00;2401026;57;26179;-59
2021/05/04 11:11:57;;;;;;;3.40;1.70;;;22.10;87.50;;;23.30;33.22;94330.00;2188091;58;26156;-60
2021/05/04 11:14:43;;;;;;;4.10;1.85;;;20.30;88.40;;;21.97;33.86;94315.00;2400561;57;26615;-59
2021/05/04 11:17:43;;;;;;;4.40;1.67;;;20.10;88.00;;;21.77;33.78;94310.00;2188388;58;26125;-60
2021/05/04 11:20:37;;;;;;;1.90;1.67;;;19.80;91.20;;;21.46;36.98;94308.00;2400726;57;26196;-60
2021/05/04 11:23:25;;;;;;;3.03;1.75;;;21.20;82.80;;;23.84;29.20;94293.00;2188158;58;26164;-60
2021/05/04 11:26:11;;;;;;;2.00;1.70;;;20.80;90.50;;;21.92;36.72;94300.00;2188041;58;26779;-59
2021/05/04 11:29:09;;;;;;;2.53;1.50;;;20.60;85.20;;;23.11;31.11;94294.00;2188267;58;26673;-60
2021/05/04 11:32:07;;;;;;;1.95;1.75;;;20.60;90.10;;;22.25;35.84;94286.00;2188053;58;26128;-60
2021/05/04 11:34:58;;;;;;;3.25;1.80;;;20.60;90.30;;;22.71;35.54;94289.00;2400447;58;26641;-59
2021/05/04 11:37:50;;;;;;;2.05;1.85;;;21.00;87.80;;;22.95;33.56;94282.00;2187603;58;26723;-59
2021/05/04 11:40:37;;;;;;;4.32;1.65;;;20.90;86.60;;;22.36;33.65;94281.00;2187908;58;26132;-60
2021/05/04 11:43:27;;;;;;;2.87;1.60;;;20.70;86.40;;;22.43;32.91;94278.00;2187492;58;26626;-60
2021/05/04 11:46:25;;;;;;;2.40;1.80;;;20.60;82.10;;;22.38;30.93;94274.00;2188067;58;26180;-59
2021/05/04 11:49:22;;;;;;;2.17;1.80;;;20.30;90.00;;;21.78;36.37;94281.00;2401115;58;26132;-60
2021/05/04 11:52:09;;;;;;;3.00;1.85;;;19.60;91.00;;;20.82;38.25;94274.00;2400861;57;26120;-59